Time;durP1;ratioP1;P1;durP2;ratioP2;P2;SDS_P1;SDS_P2;PMS_P1;PMS_P2;Temp;Humidity;BMP_temperature;BMP_pressure;BME280_temperature;BME280_humidity;BME280_pressure;Samples;Min_cycle;Max_cycle;Signal;HPM_P1;HPM_P2
2020/12/25 00:01:29;;;;;;;16.83;6.53;;;4.90;99.90;;;;;;4992555;28;20031;-60
2020/12/25 00:03:58;;;;;;;11.80;6.82;;;4.90;99.90;;;;;;4992633;28;20042;-60
2020/12/25 00:06:32;;;;;;;28.52;13.43;;;4.90;99.90;;;;;;4992536;28;20081;-60
2020/12/25 00:08:58;;;;;;;9.07;5.30;;;4.90;99.90;;;;;;4991216;28;20034;-60
2020/12/25 00:11:31;;;;;;;12.93;6.05;;;4.90;99.90;;;;;;4992541;28;20026;-61
2020/12/25 00:13:57;;;;;;;7.90;4.47;;;4.90;99.90;;;;;;4992174;28;20090;-60
2020/12/25 00:16:29;;;;;;;8.90;5.57;;;4.80;99.90;;;;;;4992410;28;20054;-60
2020/12/25 00:18:55;;;;;;;9.18;4.97;;;4.80;99.90;;;;;;4992362;28;20031;-60
2020/12/25 00:21:22;;;;;;;12.25;5.63;;;4.80;99.90;;;;;;4992366;28;20050;-60
2020/12/25 00:23:48;;;;;;;9.00;4.43;;;4.90;99.90;;;;;;4992241;28;20027;-60
2020/12/25 00:26:29;;;;;;;13.13;5.03;;;4.80;99.90;;;;;;4992300;28;20026;-60
2020/12/25 00:28:57;;;;;;;13.88;5.75;;;4.80;99.90;;;;;;4996184;28;20042;-60
2020/12/25 00:31:31;;;;;;;8.73;4.30;;;4.80;99.90;;;;;;4995982;28;20030;-61
2020/12/25 00:34:03;;;;;;;8.70;5.05;;;4.90;99.90;;;;;;4995995;28;20041;-61
2020/12/25 00:36:40;;;;;;;10.48;5.18;;;4.80;99.90;;;;;;4995931;28;20081;-59
2020/12/25 00:39:09;;;;;;;7.40;4.20;;;4.80;99.90;;;;;;4995515;28;20100;-60
2020/12/25 00:41:45;;;;;;;10.63;5.10;;;4.80;99.90;;;;;;4995812;28;20040;-60
2020/12/25 00:44:11;;;;;;;7.82;4.88;;;4.90;99.90;;;;;;4995668;28;20065;-60
2020/12/25 00:46:38;;;;;;;9.50;4.80;;;4.80;99.90;;;;;;4995728;28;20033;-60
2020/12/25 00:49:05;;;;;;;10.73;5.28;;;4.80;99.90;;;;;;4995611;28;20058;-60
2020/12/25 00:51:31;;;;;;;9.43;5.03;;;4.90;99.90;;;;;;4995368;28;20027;-60
2020/12/25 00:53:57;;;;;;;9.13;3.88;;;4.80;99.90;;;;;;4995671;28;20046;-60
2020/12/25 00:56:22;;;;;;;13.70;5.05;;;4.80;99.90;;;;;;4995418;28;20053;-60
2020/12/25 00:58:48;;;;;;;9.10;4.88;;;4.70;99.90;;;;;;4995598;28;20053;-60
2020/12/25 01:01:15;;;;;;;12.40;4.68;;;4.80;99.90;;;;;;4995414;28;20081;-60
2020/12/25 01:03:44;;;;;;;9.55;4.50;;;4.80;99.90;;;;;;4995519;28;20033;-60
2020/12/25 01:06:18;;;;;;;8.60;4.38;;;4.80;99.90;;;;;;4995334;28;20030;-60
2020/12/25 01:08:48;;;;;;;8.35;4.68;;;4.80;99.90;;;;;;4995474;28;20026;-60
2020/12/25 01:11:16;;;;;;;7.53;4.05;;;4.80;99.90;;;;;;4995514;28;20031;-60
2020/12/25 01:13:43;;;;;;;9.02;4.57;;;4.80;99.90;;;;;;4995003;28;20050;-60
2020/12/25 01:16:15;;;;;;;12.82;4.88;;;4.80;99.90;;;;;;4995189;28;20080;-60
2020/12/25 01:18:43;;;;;;;8.90;5.63;;;4.90;99.90;;;;;;4995072;28;20073;-61
2020/12/25 01:21:10;;;;;;;8.25;5.00;;;4.80;99.90;;;;;;4994783;28;20027;-61
2020/12/25 01:23:36;;;;;;;10.73;5.70;;;4.80;99.90;;;;;;4993713;28;20095;-60
2020/12/25 01:26:05;;;;;;;9.98;4.97;;;4.80;99.90;;;;;;4995019;28;20068;-60
2020/12/25 01:28:32;;;;;;;11.00;4.80;;;4.70;99.90;;;;;;4994832;28;20041;-60
2020/12/25 01:30:57;;;;;;;9.02;5.18;;;4.70;99.90;;;;;;4994777;28;20049;-60
2020/12/25 01:33:24;;;;;;;7.50;4.70;;;4.70;99.90;;;;;;4994790;28;20034;-60
2020/12/25 01:35:50;;;;;;;10.88;5.00;;;4.70;99.90;;;;;;4994866;28;20027;-61
2020/12/25 01:38:16;;;;;;;10.38;5.45;;;4.80;99.90;;;;;;4994277;28;20159;-60
2020/12/25 01:40:42;;;;;;;9.27;5.43;;;4.70;99.90;;;;;;5010056;28;20084;-60
2020/12/25 01:43:08;;;;;;;8.50;5.05;;;4.80;99.90;;;;;;4994742;28;20026;-60
2020/12/25 01:45:34;;;;;;;9.82;5.00;;;4.80;99.90;;;;;;4994579;28;20039;-60
2020/12/25 01:48:00;;;;;;;11.85;6.45;;;4.70;99.90;;;;;;4994512;28;20035;-60
2020/12/25 01:50:29;;;;;;;8.50;5.25;;;4.70;99.90;;;;;;4994523;28;20080;-60
2020/12/25 01:52:57;;;;;;;10.05;5.22;;;4.80;99.90;;;;;;4993351;28;20022;-61
2020/12/25 01:55:28;;;;;;;11.50;5.88;;;4.70;99.90;;;;;;4994389;28;20041;-60
2020/12/25 01:57:57;;;;;;;9.90;5.40;;;4.80;99.90;;;;;;4993248;28;20072;-60
2020/12/25 02:00:23;;;;;;;11.35;5.38;;;4.90;99.90;;;;;;4994445;28;20218;-60
2020/12/25 02:02:50;;;;;;;10.57;5.70;;;4.90;99.90;;;;;;4994476;28;20037;-61
2020/12/25 02:05:17;;;;;;;10.07;5.28;;;4.90;99.90;;;;;;4994061;28;20040;-60
2020/12/25 02:07:44;;;;;;;11.43;6.20;;;4.90;99.90;;;;;;4994380;28;20133;-60
2020/12/25 02:10:11;;;;;;;10.52;6.30;;;4.90;99.90;;;;;;4994257;28;20030;-60
2020/12/25 02:12:38;;;;;;;9.80;6.00;;;4.90;99.90;;;;;;4993955;28;20050;-61
2020/12/25 02:15:06;;;;;;;12.98;6.13;;;5.00;99.90;;;;;;4992519;28;20125;-61
2020/12/25 02:17:32;;;;;;;15.32;5.65;;;5.00;99.90;;;;;;4993893;28;20121;-61
2020/12/25 02:20:02;;;;;;;11.00;5.75;;;5.00;99.90;;;;;;4994097;28;20118;-61
2020/12/25 02:22:30;;;;;;;10.15;5.40;;;5.00;99.90;;;;;;4992793;28;20042;-61
2020/12/25 02:24:56;;;;;;;15.27;7.00;;;5.00;99.90;;;;;;4994011;28;20030;-60
2020/12/25 02:27:22;;;;;;;12.52;5.93;;;5.10;99.90;;;;;;4993847;28;20117;-60
2020/12/25 02:29:48;;;;;;;10.30;6.10;;;5.00;99.90;;;;;;4993945;28;20076;-61
2020/12/25 02:32:14;;;;;;;16.42;5.55;;;5.10;99.90;;;;;;4993809;28;20079;-60
2020/12/25 02:34:40;;;;;;;12.32;6.18;;;5.10;99.90;;;;;;4993603;28;20034;-61
2020/12/25 02:37:06;;;;;;;13.45;6.75;;;5.10;99.90;;;;;;4993794;28;20034;-60
2020/12/25 02:39:32;;;;;;;13.75;6.90;;;5.10;99.90;;;;;;4993293;28;20035;-60
2020/12/25 02:41:58;;;;;;;11.52;6.07;;;5.10;99.90;;;;;;4993487;28;20387;-60
2020/12/25 02:44:24;;;;;;;10.70;6.25;;;5.10;99.90;;;;;;4992413;28;20383;-61
2020/12/25 02:46:50;;;;;;;12.70;6.93;;;5.10;99.90;;;;;;4993332;28;20046;-60
2020/12/25 02:49:16;;;;;;;14.63;6.53;;;5.10;99.90;;;;;;4993472;28;20086;-60
2020/12/25 02:51:41;;;;;;;14.60;7.07;;;5.00;99.90;;;;;;4992669;28;20038;-61
2020/12/25 02:54:07;;;;;;;13.85;7.30;;;5.10;99.90;;;;;;4993505;28;20045;-60
2020/12/25 02:56:33;;;;;;;10.10;6.45;;;5.10;99.90;;;;;;4993339;28;20090;-61
2020/12/25 02:58:59;;;;;;;13.73;7.28;;;5.10;99.90;;;;;;4993148;28;20061;-61
2020/12/25 03:01:25;;;;;;;14.73;7.10;;;5.10;99.90;;;;;;4993067;28;20151;-61
2020/12/25 03:03:51;;;;;;;12.40;7.05;;;5.10;99.90;;;;;;4993181;28;20037;-61
2020/12/25 03:06:17;;;;;;;13.45;6.97;;;5.10;99.90;;;;;;4992990;28;20041;-61
2020/12/25 03:08:43;;;;;;;12.55;6.65;;;5.20;99.90;;;;;;4993358;28;20030;-61
2020/12/25 03:11:09;;;;;;;11.23;6.80;;;5.20;99.90;;;;;;4992976;28;20030;-60
2020/12/25 03:13:36;;;;;;;27.20;7.65;;;5.20;99.90;;;;;;4992737;28;20156;-61
2020/12/25 03:16:04;;;;;;;11.65;5.80;;;5.20;99.90;;;;;;4993148;28;20030;-60
2020/12/25 03:18:30;;;;;;;16.63;6.47;;;5.20;99.90;;;;;;4992988;28;20039;-61
2020/12/25 03:20:57;;;;;;;10.95;6.43;;;5.20;99.90;;;;;;4993145;28;20359;-60
2020/12/25 03:23:23;;;;;;;12.32;6.40;;;5.20;99.90;;;;;;4992982;28;20022;-60
2020/12/25 03:25:48;;;;;;;9.85;5.57;;;5.10;99.90;;;;;;4992802;28;20112;-61
2020/12/25 03:28:14;;;;;;;14.70;5.63;;;5.20;99.90;;;;;;4992992;28;20041;-60
2020/12/25 03:30:40;;;;;;;11.32;5.97;;;5.20;99.90;;;;;;4992888;28;20034;-61
2020/12/25 03:33:06;;;;;;;12.45;5.25;;;5.10;99.90;;;;;;4992754;28;20427;-60
2020/12/25 03:35:32;;;;;;;8.77;4.57;;;5.10;99.90;;;;;;4992844;28;20081;-60
2020/12/25 03:37:58;;;;;;;8.48;4.47;;;5.10;99.90;;;;;;4992726;28;20030;-61
2020/12/25 03:40:24;;;;;;;8.70;4.45;;;5.10;99.90;;;;;;4992648;28;20424;-60
2020/12/25 03:42:50;;;;;;;7.75;3.78;;;5.10;99.90;;;;;;4993037;28;20386;-61
2020/12/25 03:45:16;;;;;;;9.35;4.53;;;5.20;99.90;;;;;;4992505;28;20030;-60
2020/12/25 03:47:42;;;;;;;9.27;3.95;;;5.10;99.90;;;;;;4992958;28;20031;-60
2020/12/25 03:50:08;;;;;;;5.50;3.03;;;5.20;99.90;;;;;;4992890;28;20041;-60
2020/12/25 03:52:34;;;;;;;6.70;3.05;;;5.10;99.90;;;;;;4992657;28;20030;-61
2020/12/25 03:55:02;;;;;;;6.43;3.30;;;5.10;99.90;;;;;;4992722;28;20037;-60
2020/12/25 03:57:28;;;;;;;4.82;2.88;;;5.10;99.90;;;;;;4992654;28;20030;-60
2020/12/25 03:59:54;;;;;;;5.30;2.42;;;5.10;99.90;;;;;;4992797;28;20117;-61
2020/12/25 04:02:19;;;;;;;6.63;2.78;;;5.10;99.90;;;;;;4994220;28;20109;-60
2020/12/25 04:04:45;;;;;;;4.35;2.40;;;5.00;99.90;;;;;;4996638;28;20069;-60
2020/12/25 04:07:11;;;;;;;3.75;2.53;;;5.00;99.90;;;;;;4996569;28;20030;-61
2020/12/25 04:09:37;;;;;;;5.75;2.35;;;5.00;99.90;;;;;;4996175;28;20096;-60
2020/12/25 04:12:03;;;;;;;5.47;2.60;;;5.00;99.90;;;;;;4996555;28;20034;-60
2020/12/25 04:14:29;;;;;;;4.10;2.47;;;5.00;99.90;;;;;;4995887;28;20042;-60
2020/12/25 04:16:55;;;;;;;5.10;2.33;;;5.00;99.90;;;;;;4996368;28;20034;-60
2020/12/25 04:19:21;;;;;;;3.35;2.20;;;5.00;99.90;;;;;;4996348;28;20034;-61
2020/12/25 04:21:47;;;;;;;3.67;2.20;;;5.00;99.90;;;;;;4996008;28;20088;-60
2020/12/25 04:24:13;;;;;;;2.58;1.65;;;5.00;99.90;;;;;;4995958;28;20058;-60
2020/12/25 04:26:39;;;;;;;5.25;2.13;;;4.90;99.90;;;;;;4995954;28;20141;-60
2020/12/25 04:29:04;;;;;;;3.67;2.00;;;4.90;99.90;;;;;;4996198;28;20084;-61
2020/12/25 04:31:30;;;;;;;5.40;2.05;;;4.90;99.90;;;;;;4996212;28;20034;-61
2020/12/25 04:33:56;;;;;;;5.38;2.10;;;4.90;99.90;;;;;;4996049;28;20112;-61
2020/12/25 04:36:22;;;;;;;4.53;2.05;;;5.00;99.90;;;;;;4995576;28;20101;-61
2020/12/25 04:38:48;;;;;;;3.70;2.30;;;5.00;99.90;;;;;;4996068;28;20034;-61
2020/12/25 04:41:15;;;;;;;6.72;2.67;;;5.00;99.90;;;;;;4995956;28;20025;-62
2020/12/25 04:43:41;;;;;;;5.13;2.20;;;5.00;99.90;;;;;;4995867;28;20030;-60
2020/12/25 04:46:08;;;;;;;4.63;2.25;;;5.10;99.90;;;;;;4995785;28;20018;-60
2020/12/25 04:48:38;;;;;;;6.35;2.55;;;5.10;99.90;;;;;;4995750;28;20034;-60
2020/12/25 04:51:04;;;;;;;7.40;2.67;;;5.10;99.90;;;;;;4995346;28;20122;-61
2020/12/25 04:53:31;;;;;;;5.90;3.28;;;5.10;99.90;;;;;;4995223;28;20038;-61
2020/12/25 04:55:58;;;;;;;8.63;2.80;;;5.10;99.90;;;;;;4995723;28;20026;-61
2020/12/25 04:58:25;;;;;;;9.52;3.28;;;5.10;99.90;;;;;;4995594;28;20061;-61
2020/12/25 05:01:07;;;;;;;7.72;3.72;;;5.10;99.90;;;;;;4995691;28;20023;-60
2020/12/25 05:03:37;;;;;;;6.22;3.55;;;5.10;99.90;;;;;;4995431;28;20038;-61
2020/12/25 05:06:09;;;;;;;6.63;4.03;;;5.10;99.90;;;;;;4995541;28;20040;-60
2020/12/25 05:08:39;;;;;;;;;;;5.00;99.90;;;;;;4995729;28;20274;-60
2020/12/25 05:11:07;;;;;;;6.43;3.10;;;5.00;99.90;;;;;;4995283;28;19983;-60
2020/12/25 05:13:34;;;;;;;6.93;3.63;;;5.00;99.90;;;;;;5009108;28;20080;-60
2020/12/25 05:16:00;;;;;;;7.30;3.72;;;5.00;99.90;;;;;;4995035;28;20041;-60
2020/12/25 05:18:31;;;;;;;7.15;3.83;;;4.90;99.90;;;;;;4995198;28;20042;-60
2020/12/25 05:21:08;;;;;;;5.95;3.17;;;5.00;99.90;;;;;;4995340;28;20026;-60
2020/12/25 05:23:37;;;;;;;5.25;2.88;;;5.00;99.90;;;;;;4994875;28;20065;-60
2020/12/25 05:26:05;;;;;;;8.02;3.65;;;4.90;99.90;;;;;;4994867;28;20162;-61
2020/12/25 05:28:48;;;;;;;8.50;4.80;;;4.90;99.90;;;;;;4993829;28;20026;-61
2020/12/25 05:31:16;;;;;;;6.60;3.47;;;4.90;99.90;;;;;;4995084;28;20026;-60
2020/12/25 05:33:42;;;;;;;9.80;3.58;;;4.90;99.90;;;;;;4994871;28;20035;-60
2020/12/25 05:36:13;;;;;;;7.75;3.95;;;4.90;99.90;;;;;;4994946;28;20038;-60
2020/12/25 05:38:46;;;;;;;5.95;3.13;;;4.90;99.90;;;;;;4994945;28;20030;-60
2020/12/25 05:41:13;;;;;;;7.28;3.80;;;4.90;99.90;;;;;;5009759;28;20056;-60
2020/12/25 05:43:38;;;;;;;6.78;3.63;;;4.80;99.90;;;;;;4994739;28;20030;-60
2020/12/25 05:46:04;;;;;;;10.00;3.17;;;4.90;99.90;;;;;;4994797;28;20057;-61
2020/12/25 05:48:33;;;;;;;9.88;3.40;;;4.90;99.90;;;;;;4994675;28;20052;-61
2020/12/25 05:50:58;;;;;;;9.65;3.22;;;4.80;99.90;;;;;;4994616;28;20040;-60
2020/12/25 05:53:24;;;;;;;5.32;3.10;;;4.80;99.90;;;;;;4994410;28;20038;-60
2020/12/25 05:55:51;;;;;;;5.78;3.33;;;4.90;99.90;;;;;;4994348;28;20085;-60
2020/12/25 05:58:19;;;;;;;7.18;3.50;;;4.90;99.90;;;;;;4994520;28;20023;-61
2020/12/25 06:00:45;;;;;;;6.20;3.40;;;4.90;99.90;;;;;;4993290;28;20084;-61
2020/12/25 06:03:13;;;;;;;8.93;3.65;;;4.90;99.90;;;;;;4994483;28;20030;-60
2020/12/25 06:05:43;;;;;;;6.65;3.38;;;4.90;99.90;;;;;;4994244;28;20038;-60
2020/12/25 06:08:34;;;;;;;6.30;3.20;;;4.90;99.90;;;;;;4994454;28;20031;-60
2020/12/25 06:11:03;;;;;;;6.00;3.60;;;4.90;99.90;;;;;;4993289;28;20032;-60
2020/12/25 06:13:41;;;;;;;5.18;2.92;;;4.90;99.90;;;;;;5008843;28;20042;-61
2020/12/25 06:16:16;;;;;;;6.88;3.42;;;5.00;99.90;;;;;;4994245;28;20037;-60
2020/12/25 06:19:16;;;;;;;6.63;2.80;;;5.00;99.90;;;;;;4992943;28;20057;-60
2020/12/25 06:21:55;;;;;;;6.97;3.25;;;5.00;99.90;;;;;;4992869;28;20033;-61
2020/12/25 06:24:29;;;;;;;8.63;3.38;;;4.90;99.90;;;;;;4993762;28;20088;-60
2020/12/25 06:27:00;;;;;;;6.63;3.20;;;5.00;99.90;;;;;;4993984;28;20030;-60
2020/12/25 06:29:28;;;;;;;6.47;3.03;;;4.90;99.90;;;;;;4993981;28;20045;-60
2020/12/25 06:31:57;;;;;;;6.15;2.95;;;4.90;99.90;;;;;;4993934;28;20038;-60
2020/12/25 06:34:39;;;;;;;6.88;2.92;;;4.90;99.90;;;;;;4993767;28;20088;-60
2020/12/25 06:37:11;;;;;;;8.73;3.50;;;4.90;99.90;;;;;;4992586;28;20034;-60
2020/12/25 06:39:37;;;;;;;5.60;3.22;;;4.90;99.90;;;;;;4993519;28;20034;-60
2020/12/25 06:42:03;;;;;;;5.38;3.00;;;4.90;99.90;;;;;;4993765;28;20038;-60
2020/12/25 06:44:29;;;;;;;6.53;3.33;;;4.90;99.90;;;;;;4993354;28;20080;-61
2020/12/25 06:47:03;;;;;;;5.07;2.83;;;5.00;99.90;;;;;;4993726;28;20033;-61
2020/12/25 06:49:37;;;;;;;6.00;3.55;;;5.00;99.90;;;;;;4993584;28;20030;-61
2020/12/25 06:52:03;;;;;;;6.70;3.55;;;4.90;99.90;;;;;;4993481;28;20038;-61
2020/12/25 06:54:41;;;;;;;6.85;3.17;;;4.90;99.90;;;;;;4993287;28;20030;-61
2020/12/25 06:57:09;;;;;;;5.93;3.33;;;4.90;99.90;;;;;;4993602;28;20031;-61
2020/12/25 06:59:40;;;;;;;6.43;3.13;;;4.90;99.90;;;;;;4993439;28;20041;-60
2020/12/25 07:02:06;;;;;;;7.70;3.22;;;4.90;99.90;;;;;;4993521;28;20038;-61
2020/12/25 07:04:33;;;;;;;6.47;3.53;;;4.90;99.90;;;;;;4991342;28;20085;-60
2020/12/25 07:07:07;;;;;;;7.65;3.08;;;4.90;99.90;;;;;;4992387;28;20043;-60
2020/12/25 07:09:37;;;;;;;6.28;3.08;;;4.90;99.90;;;;;;4991128;28;20038;-60
2020/12/25 07:12:24;;;;;;;7.47;3.47;;;5.00;99.90;;;;;;4992789;28;20042;-59
2020/12/25 07:14:50;;;;;;;5.30;3.03;;;5.00;99.90;;;;;;4991736;28;20305;-59
2020/12/25 07:17:17;;;;;;;6.47;3.78;;;5.00;99.90;;;;;;4992754;28;20077;-60
2020/12/25 07:19:43;;;;;;;6.18;2.80;;;5.00;99.90;;;;;;4992995;28;20027;-61
2020/12/25 07:22:10;;;;;;;8.05;3.30;;;5.00;99.90;;;;;;4992993;28;20073;-61
2020/12/25 07:24:40;;;;;;;4.70;2.63;;;5.00;99.90;;;;;;4992447;28;20175;-62
2020/12/25 07:27:09;;;;;;;7.27;2.90;;;5.00;99.90;;;;;;5007804;28;20030;-61
2020/12/25 07:29:36;;;;;;;6.40;3.13;;;5.00;99.90;;;;;;4992523;28;20301;-61
2020/12/25 07:32:03;;;;;;;4.93;2.88;;;4.90;99.90;;;;;;4992502;28;20117;-61
2020/12/25 07:34:30;;;;;;;8.57;3.22;;;5.00;99.90;;;;;;4991382;28;20039;-60
2020/12/25 07:36:57;;;;;;;7.70;3.15;;;5.00;99.90;;;;;;4992321;28;20038;-58
2020/12/25 07:39:25;;;;;;;6.85;3.13;;;5.00;99.90;;;;;;4992292;28;20041;-57
2020/12/25 07:41:51;;;;;;;6.25;2.78;;;5.10;99.90;;;;;;4992256;28;20168;-58
2020/12/25 07:44:19;;;;;;;7.28;2.85;;;5.00;99.90;;;;;;4975040;28;20125;-56
2020/12/25 07:46:45;;;;;;;4.15;2.60;;;5.10;99.90;;;;;;4992720;28;20034;-57
2020/12/25 07:49:12;;;;;;;6.68;3.25;;;5.10;99.90;;;;;;4992770;28;20084;-57
2020/12/25 07:51:39;;;;;;;5.88;2.83;;;5.10;99.90;;;;;;4992091;28;20041;-57
2020/12/25 07:54:05;;;;;;;5.00;3.10;;;5.10;99.90;;;;;;4992313;28;20116;-57
2020/12/25 07:56:34;;;;;;;6.60;3.08;;;5.10;99.90;;;;;;4992438;28;20026;-57
2020/12/25 07:59:02;;;;;;;7.25;3.92;;;5.00;99.90;;;;;;4992503;28;20093;-57
2020/12/25 08:01:31;;;;;;;5.45;2.50;;;5.00;99.90;;;;;;4992697;28;20019;-57
2020/12/25 08:03:59;;;;;;;5.55;2.50;;;5.00;99.90;;;;;;4992658;28;20058;-58
2020/12/25 08:06:27;;;;;;;6.63;3.33;;;5.10;99.90;;;;;;4992328;28;20023;-54
2020/12/25 08:09:15;;;;;;;7.75;3.08;;;5.10;99.90;;;;;;4992096;28;20092;-57
2020/12/25 08:11:41;;;;;;;6.03;2.97;;;5.00;99.90;;;;;;4991289;28;20042;-57
2020/12/25 08:14:14;;;;;;;8.45;3.78;;;5.00;99.90;;;;;;4990883;28;20126;-57
2020/12/25 08:16:43;;;;;;;6.47;2.85;;;5.00;99.90;;;;;;4991247;28;20113;-55
2020/12/25 08:19:09;;;;;;;6.28;2.80;;;5.00;99.90;;;;;;4991023;28;20034;-56
2020/12/25 08:21:39;;;;;;;6.78;3.10;;;5.00;99.90;;;;;;4992366;28;20077;-56
2020/12/25 08:24:06;;;;;;;5.68;2.95;;;5.00;99.90;;;;;;4992298;28;20086;-58
2020/12/25 08:26:36;;;;;;;7.03;2.78;;;5.00;99.90;;;;;;4992365;28;20026;-58
2020/12/25 08:29:03;;;;;;;4.85;2.78;;;4.90;99.90;;;;;;4992345;28;20030;-58
2020/12/25 08:31:40;;;;;;;6.18;2.88;;;4.90;99.90;;;;;;4992418;28;20038;-58
2020/12/25 08:34:21;;;;;;;6.78;2.55;;;5.00;99.90;;;;;;4989836;28;20042;-59
2020/12/25 08:37:00;;;;;;;7.68;2.97;;;4.90;99.90;;;;;;4990844;28;20038;-59
2020/12/25 08:39:31;;;;;;;4.55;2.45;;;4.90;99.90;;;;;;4992229;28;20038;-58
2020/12/25 08:41:58;;;;;;;9.18;2.70;;;4.90;99.90;;;;;;4991947;28;20030;-59
2020/12/25 08:44:25;;;;;;;5.88;2.70;;;5.00;99.90;;;;;;4992179;28;20066;-57
2020/12/25 08:47:10;;;;;;;6.18;2.53;;;5.00;99.90;;;;;;4992167;28;20030;-58
2020/12/25 08:49:37;;;;;;;5.82;2.65;;;5.00;99.90;;;;;;4992880;28;20146;-59
2020/12/25 08:52:03;;;;;;;4.85;2.63;;;5.10;99.90;;;;;;4995603;28;20038;-58
2020/12/25 08:54:30;;;;;;;5.03;2.50;;;5.10;99.90;;;;;;4995215;28;20117;-57
2020/12/25 08:56:56;;;;;;;6.07;1.95;;;5.10;99.90;;;;;;4995545;28;20069;-58
2020/12/25 08:59:23;;;;;;;6.43;2.80;;;5.10;99.90;;;;;;4995532;28;20038;-57
2020/12/25 09:01:50;;;;;;;5.93;2.20;;;5.20;99.90;;;;;;4995348;28;20439;-60
2020/12/25 09:04:20;;;;;;;4.57;2.53;;;5.20;99.90;;;;;;4995179;28;20096;-60
2020/12/25 09:06:50;;;;;;;6.53;2.25;;;5.20;99.90;;;;;;4993697;28;20022;-59
2020/12/25 09:09:16;;;;;;;6.65;2.88;;;5.20;99.90;;;;;;4995289;28;20030;-59
2020/12/25 09:11:42;;;;;;;7.80;2.95;;;5.10;99.90;;;;;;4994818;28;20447;-60
2020/12/25 09:14:08;;;;;;;6.35;2.75;;;5.00;99.90;;;;;;4993283;28;20138;-60
2020/12/25 09:16:34;;;;;;;8.10;3.10;;;5.00;99.90;;;;;;4993768;28;20101;-58
2020/12/25 09:18:59;;;;;;;6.25;2.33;;;5.00;99.90;;;;;;4994899;28;20093;-57
2020/12/25 09:21:29;;;;;;;5.25;2.40;;;5.00;99.90;;;;;;4993077;28;20061;-56
2020/12/25 09:23:56;;;;;;;5.72;2.50;;;5.00;99.90;;;;;;4994454;28;20038;-56
2020/12/25 09:26:22;;;;;;;6.90;3.55;;;5.00;99.90;;;;;;4994511;28;20042;-58
2020/12/25 09:28:48;;;;;;;5.72;2.70;;;5.00;99.90;;;;;;4994855;28;20475;-59
2020/12/25 09:31:15;;;;;;;5.72;2.08;;;5.10;99.90;;;;;;4992853;28;20038;-54
2020/12/25 09:33:41;;;;;;;5.75;1.90;;;4.90;99.90;;;;;;4992251;28;20034;-58
2020/12/25 09:36:09;;;;;;;4.03;2.17;;;4.90;99.90;;;;;;4993253;28;20034;-57
2020/12/25 09:38:43;;;;;;;4.82;2.33;;;4.80;99.90;;;;;;4994166;28;20026;-58
2020/12/25 09:41:12;;;;;;;7.22;2.10;;;4.80;99.90;;;;;;4993431;28;20034;-55
2020/12/25 09:43:38;;;;;;;3.83;1.88;;;4.70;99.90;;;;;;4994468;28;20042;-59
2020/12/25 09:46:04;;;;;;;3.58;1.77;;;4.70;99.90;;;;;;5009568;28;20030;-59
2020/12/25 09:48:30;;;;;;;2.78;1.48;;;4.80;99.90;;;;;;4992639;28;20349;-60
2020/12/25 09:50:56;;;;;;;3.00;1.55;;;4.80;99.90;;;;;;4993636;28;20093;-60
2020/12/25 09:53:22;;;;;;;6.47;1.67;;;4.80;99.90;;;;;;4993049;28;20038;-59
2020/12/25 09:55:50;;;;;;;4.50;2.10;;;4.80;99.90;;;;;;4993358;28;20034;-57
2020/12/25 09:58:17;;;;;;;3.63;2.15;;;4.80;99.90;;;;;;4994333;28;20034;-55
2020/12/25 10:00:43;;;;;;;3.55;1.85;;;4.90;99.90;;;;;;4993926;28;20031;-55
2020/12/25 10:03:08;;;;;;;2.35;1.50;;;4.90;99.90;;;;;;4994207;28;20056;-58
2020/12/25 10:05:34;;;;;;;3.45;1.67;;;4.90;99.90;;;;;;5009172;28;20536;-58
2020/12/25 10:08:00;;;;;;;3.95;1.40;;;4.80;99.90;;;;;;4994268;28;20038;-62
2020/12/25 10:10:26;;;;;;;4.07;1.60;;;4.90;99.90;;;;;;4992772;28;20026;-57
2020/12/25 10:12:53;;;;;;;4.32;1.98;;;4.90;99.90;;;;;;4992648;28;20061;-59
2020/12/25 10:15:19;;;;;;;7.28;1.80;;;5.00;99.90;;;;;;4994329;28;20077;-58
2020/12/25 10:17:45;;;;;;;3.38;1.77;;;5.00;99.90;;;;;;4994044;28;20034;-57
2020/12/25 10:20:11;;;;;;;5.00;1.63;;;5.00;99.90;;;;;;4993986;28;20095;-61
2020/12/25 10:22:37;;;;;;;3.97;1.80;;;5.00;99.90;;;;;;4989975;28;20058;-57
2020/12/25 10:25:04;;;;;;;3.90;1.83;;;5.00;99.90;;;;;;4987651;28;20094;-58
2020/12/25 10:27:31;;;;;;;7.80;2.88;;;5.10;99.90;;;;;;4975265;28;20069;-61
2020/12/25 10:29:57;;;;;;;4.28;2.20;;;5.10;99.90;;;;;;4976563;28;20081;-67
2020/12/25 10:32:23;;;;;;;4.35;1.70;;;5.20;99.90;;;;;;4986559;28;20031;-61
2020/12/25 10:34:49;;;;;;;6.80;1.88;;;5.30;99.90;;;;;;4981864;28;20045;-62
2020/12/25 10:37:15;;;;;;;4.50;1.45;;;5.30;99.90;;;;;;4992941;28;20030;-62
2020/12/25 10:39:42;;;;;;;3.00;1.63;;;5.40;99.90;;;;;;4993045;28;20059;-62
2020/12/25 10:42:09;;;;;;;2.78;1.42;;;5.40;99.90;;;;;;4993544;28;20121;-61
2020/12/25 10:44:36;;;;;;;3.55;1.45;;;5.30;99.90;;;;;;4993588;28;20089;-60
2020/12/25 10:47:03;;;;;;;4.15;1.60;;;5.30;99.90;;;;;;4993408;28;20027;-62
2020/12/25 10:49:29;;;;;;;3.33;1.50;;;5.60;99.90;;;;;;4993247;28;20045;-55
2020/12/25 10:51:55;;;;;;;3.75;1.73;;;6.10;99.90;;;;;;4993377;28;20026;-55
2020/12/25 10:54:21;;;;;;;7.00;2.38;;;7.20;99.90;;;;;;4993303;28;20038;-53
2020/12/25 10:56:47;;;;;;;4.43;1.70;;;7.80;99.90;;;;;;4993344;28;20057;-55
2020/12/25 10:59:13;;;;;;;7.18;1.73;;;7.90;99.90;;;;;;4993349;28;20034;-54
2020/12/25 11:01:40;;;;;;;3.08;1.50;;;8.20;99.90;;;;;;4993388;28;20031;-60
2020/12/25 11:04:06;;;;;;;3.55;1.70;;;8.90;99.90;;;;;;4992992;28;20030;-59
2020/12/25 11:06:36;;;;;;;4.35;1.70;;;8.90;99.90;;;;;;4993143;28;20065;-55
2020/12/25 11:09:06;;;;;;;5.80;1.40;;;10.70;97.70;;;;;;4991887;28;20030;-57
2020/12/25 11:11:34;;;;;;;4.47;2.00;;;12.70;91.00;;;;;;4992503;28;20045;-58
2020/12/25 11:14:02;;;;;;;1.92;0.98;;;12.20;89.90;;;;;;4992305;28;20046;-59
2020/12/25 11:16:34;;;;;;;3.60;1.70;;;10.40;93.30;;;;;;4993249;28;20041;-60
2020/12/25 11:19:03;;;;;;;3.45;1.20;;;9.10;97.10;;;;;;4992881;28;20121;-59
2020/12/25 11:21:30;;;;;;;2.92;1.33;;;8.30;98.50;;;;;;4992987;28;20041;-59
2020/12/25 11:23:59;;;;;;;3.85;1.65;;;7.50;99.90;;;;;;4992563;28;20062;-60
2020/12/25 11:26:34;;;;;;;2.63;1.30;;;6.90;99.90;;;;;;4993012;28;20092;-56
2020/12/25 11:29:06;;;;;;;2.80;1.67;;;7.00;99.90;;;;;;4992814;28;20041;-58
2020/12/25 11:31:34;;;;;;;1.45;1.02;;;7.20;99.90;;;;;;4992662;28;20088;-53
2020/12/25 11:34:00;;;;;;;2.30;1.58;;;9.20;99.50;;;;;;4992488;28;20130;-55
2020/12/25 11:36:29;;;;;;;4.53;1.30;;;12.00;93.10;;;;;;4991341;28;20026;-55
2020/12/25 11:38:56;;;;;;;2.58;1.35;;;12.10;90.80;;;;;;4992801;28;20031;-57
2020/12/25 11:41:24;;;;;;;3.13;1.25;;;11.30;91.00;;;;;;4992669;28;20037;-56
2020/12/25 11:43:52;;;;;;;3.08;1.35;;;10.70;91.90;;;;;;4989148;28;20030;-56
2020/12/25 11:46:19;;;;;;;2.13;1.17;;;11.60;91.60;;;;;;4992462;28;20030;-56
2020/12/25 11:48:45;;;;;;;3.90;1.15;;;13.20;84.50;;;;;;4992700;28;20093;-55
2020/12/25 11:51:27;;;;;;;3.10;1.10;;;10.80;86.60;;;;;;4992522;28;20106;-55
2020/12/25 11:53:53;;;;;;;3.80;1.15;;;10.50;91.20;;;;;;4993234;28;20038;-57
2020/12/25 11:56:31;;;;;;;3.25;1.23;;;10.10;92.20;;;;;;4992657;28;20105;-54
2020/12/25 11:59:02;;;;;;;1.80;1.17;;;10.70;91.50;;;;;;4992616;28;20030;-55
2020/12/25 12:01:30;;;;;;;1.23;0.70;;;10.50;91.30;;;;;;4992676;28;20068;-55
2020/12/25 12:03:56;;;;;;;2.10;1.00;;;10.70;91.80;;;;;;4992155;28;20034;-55
2020/12/25 12:06:25;;;;;;;2.55;0.70;;;10.80;91.10;;;;;;4992277;28;20142;-57
2020/12/25 12:08:52;;;;;;;1.88;1.00;;;10.20;92.40;;;;;;4992438;28;20046;-58
2020/12/25 12:11:18;;;;;;;2.42;1.20;;;10.00;93.20;;;;;;4992325;28;20038;-57
2020/12/25 12:13:44;;;;;;;1.65;1.00;;;9.30;95.60;;;;;;4991949;28;20137;-59
2020/12/25 12:16:15;;;;;;;1.83;1.05;;;8.60;97.60;;;;;;4992050;28;20034;-57
2020/12/25 12:18:42;;;;;;;6.10;1.10;;;8.10;99.70;;;;;;4991806;28;20046;-59
2020/12/25 12:21:12;;;;;;;1.95;1.00;;;8.10;99.90;;;;;;4992375;28;20073;-57
2020/12/25 12:23:38;;;;;;;3.08;1.38;;;9.10;98.30;;;;;;4994176;28;20037;-58
2020/12/25 12:26:05;;;;;;;1.27;0.80;;;10.40;95.90;;;;;;4995874;28;20037;-58
2020/12/25 12:28:31;;;;;;;2.10;0.80;;;11.10;93.40;;;;;;4996044;28;20110;-59
2020/12/25 12:30:58;;;;;;;3.83;1.20;;;11.00;91.20;;;;;;4995847;28;20038;-57
2020/12/25 12:33:24;;;;;;;2.15;1.15;;;11.20;91.70;;;;;;4995741;28;20085;-58
2020/12/25 12:35:50;;;;;;;1.80;0.95;;;10.60;92.10;;;;;;4995437;28;20034;-57
2020/12/25 12:38:16;;;;;;;3.05;1.10;;;10.50;92.60;;;;;;4995959;28;20117;-57
2020/12/25 12:40:42;;;;;;;2.20;1.13;;;10.40;93.00;;;;;;4995806;28;20064;-58
2020/12/25 12:43:08;;;;;;;2.22;1.00;;;10.20;93.70;;;;;;4995635;28;20038;-58
2020/12/25 12:45:34;;;;;;;3.17;1.05;;;9.80;94.40;;;;;;4995767;28;20034;-58
2020/12/25 12:48:00;;;;;;;5.18;1.30;;;9.20;95.80;;;;;;4994462;28;20037;-57
2020/12/25 12:50:26;;;;;;;4.78;1.33;;;8.70;97.10;;;;;;4995754;28;20042;-58
2020/12/25 12:52:51;;;;;;;4.03;1.00;;;8.20;97.40;;;;;;5010417;28;20037;-58
2020/12/25 12:55:18;;;;;;;4.65;1.55;;;7.90;98.40;;;;;;4995449;28;20038;-58
2020/12/25 12:57:43;;;;;;;2.50;1.38;;;7.60;98.70;;;;;;4995627;28;20045;-58
2020/12/25 13:00:09;;;;;;;2.53;1.00;;;7.40;99.70;;;;;;4995207;28;20026;-58